Latest Weather Observations for Mangrove Mountain

IDN60901

Issued at 6:51 am EST Wednesday 22 April 2015 (issued every 10 minutes, with the page automatically refreshed every 10 minutes)

About weather observations | Map of Sydney area stations | Latest observations for Sydney area | Other Formats
Station Details ID: 061375 Name: MANGROVE MOUNTAIN AWS Lat: -33.29 Lon: 151.21 Height: 305.0 m
Data from the previous 72 hours. | See also: Recent months at Mangrove Mountain
Date/Time
EST
Tmp

°C
App
Tmp
°C
Dew
Point
°C
Rel
Hum
%
Delta-T

°C
Wind Press
QNH
hPa
Press
MSL
hPa
Rain
since
9 am
mm
Dir
 
Spd
km/h
Gust
km/h
Spd
kts
Gust
kts
22/06:30am 12.9 13.8 12.9 100 0.0 CALM 0 4 0 2 - - -
22/06:00am 12.9 12.1 12.9 100 0.0 SE 9 13 5 7 - - -
22/05:30am 12.8 12.3 12.8 100 0.0 ESE 7 11 4 6 - - -
22/05:00am 13.1 12.9 13.1 100 0.0 SW 6 9 3 5 - - -
22/04:30am 13.0 12.6 13.0 100 0.0 WNW 7 11 4 6 - - -
22/04:00am 13.1 12.7 13.1 100 0.0 W 7 11 4 6 - - -
22/03:30am 13.2 12.9 13.2 100 0.0 WNW 7 11 4 6 - - -
22/03:00am 13.9 13.8 13.9 100 0.0 SSW 7 15 4 8 - - -
22/02:30am 13.1 13.3 13.1 100 0.0 SSW 4 7 2 4 - - -
22/02:00am 12.4 12.0 12.4 100 0.0 WSW 6 11 3 6 - - -
22/01:30am 12.1 11.4 12.1 100 0.0 SW 7 13 4 7 - - -
22/01:00am 11.8 9.9 11.8 100 0.0 WSW 13 30 7 16 - - -
22/12:30am 11.9 10.4 11.9 100 0.0 SW 11 24 6 13 - - -
22/12:00am 11.9 10.0 11.9 100 0.0 SSW 13 24 7 13 - - -
 
Date/Time
EST
Tmp

°C
App
Tmp
°C
Dew
Point
°C
Rel
Hum
%
Delta-T

°C
Wind Press
QNH
hPa
Press
MSL
hPa
Rain
since
9 am
mm
Dir
 
Spd
km/h
Gust
km/h
Spd
kts
Gust
kts
21/11:30pm 11.9 8.7 11.9 100 0.0 WSW 20 39 11 21 - - -
21/11:00pm 12.1 9.9 12.1 100 0.0 WSW 15 33 8 18 - - -
21/10:30pm 12.1 9.9 12.1 100 0.0 SW 15 30 8 16 - - -
21/10:00pm 12.1 9.1 12.1 100 0.0 SSW 19 33 10 18 - - -
21/09:30pm 12.2 9.1 12.2 100 0.0 SSW 20 50 11 27 - - -
21/09:00pm 12.1 9.5 12.1 100 0.0 SW 17 33 9 18 - - 38.0
21/08:30pm 12.0 8.8 12.0 100 0.0 SSW 20 43 11 23 - - -
21/08:00pm 12.1 9.5 12.1 100 0.0 SSW 17 35 9 19 - - -
21/07:30pm 11.9 8.7 11.9 100 0.0 SSW 20 37 11 20 - - -
21/07:00pm 12.0 9.0 12.0 100 0.0 S 19 48 10 26 - - -
21/06:30pm 11.8 8.8 11.8 100 0.0 SSW 19 39 10 21 - - -
21/06:00pm 11.5 - 11.8 - - SW 13 30 7 16 - - -
21/05:30pm 11.4 8.2 11.4 100 0.0 SW 19 37 10 20 - - -
21/05:00pm 11.5 8.7 11.5 100 0.0 SSW 17 35 9 19 - - -
21/04:30pm 11.6 9.3 11.6 100 0.0 SSW 15 32 8 17 - - -
21/04:00pm 11.8 9.1 11.8 100 0.0 SSW 17 30 9 16 - - -
21/03:30pm 12.1 9.5 12.1 100 0.0 SSW 17 28 9 15 - - -
21/03:00pm 12.4 11.4 12.4 100 0.0 S 9 19 5 10 - - -
21/02:30pm 12.3 9.4 12.3 100 0.0 S 19 37 10 20 - - -
21/02:00pm 12.4 9.5 12.4 100 0.0 S 19 35 10 19 - - -
21/01:30pm 12.3 9.4 12.3 100 0.0 S 19 39 10 21 - - -
21/01:00pm 11.9 8.3 11.7 99 0.1 SSE 22 35 12 19 - - -
21/12:30pm 11.8 8.5 11.5 98 0.2 SSE 20 33 11 18 - - -
21/12:00pm 11.8 7.4 11.6 99 0.1 SSE 26 50 14 27 - - 26.2
21/11:30am 11.7 7.2 11.4 98 0.2 S 26 48 14 26 - - 19.8
21/11:00am 11.9 7.2 11.9 100 0.0 S 28 56 15 30 - - 17.0
21/10:30am 11.4 5.7 11.1 98 0.2 S 32 63 17 34 - - 14.2
21/10:09am 12.0 7.3 12.0 100 0.0 SSE 28 50 15 27 - - 13.6
21/10:00am 12.1 7.8 12.1 100 0.0 SSE 26 54 14 29 - - 11.8
21/09:42am 12.1 7.4 12.1 100 0.0 SSE 28 48 15 26 - - 7.8
21/09:30am 12.3 8.8 12.3 100 0.0 SSE 22 35 12 19 - - 5.6
21/09:02am 12.4 7.8 12.4 100 0.0 SSE 28 50 15 27 - - 0.4
21/09:00am 12.4 8.2 12.4 100 0.0 SSE 26 50 14 27 - - -
21/08:38am 12.4 7.8 12.4 100 0.0 SSE 28 59 15 32 - - -
21/08:30am 12.5 8.3 12.5 100 0.0 SSE 26 50 14 27 - - -
21/08:00am 12.6 9.6 12.6 100 0.0 SSE 20 35 11 19 - - -
21/07:30am 12.4 8.2 12.4 100 0.0 SSE 26 54 14 29 - - -
21/07:08am 12.1 7.1 12.1 100 0.0 S 30 54 16 29 - - -
21/07:00am 12.0 7.3 12.0 100 0.0 S 28 50 15 27 - - -
21/06:51am 12.0 7.3 12.0 100 0.0 S 28 50 15 27 - - -
21/06:30am 12.4 8.2 12.4 100 0.0 SSE 26 57 14 31 - - 163.6
21/06:03am 12.6 8.1 12.6 100 0.0 SSE 28 54 15 29 - - 159.4
21/06:00am 12.6 8.5 12.6 100 0.0 SSE 26 48 14 26 - - 159.0
21/05:30am 12.3 7.3 12.3 100 0.0 SSE 30 54 16 29 - - 154.6
21/05:00am 12.4 7.1 12.4 100 0.0 S 32 59 17 32 - - 152.0
21/04:30am 12.4 7.8 12.4 100 0.0 S 28 52 15 28 - - 148.2
21/04:11am 12.2 7.6 12.2 100 0.0 S 28 50 15 27 - - 146.8
21/04:00am 12.5 8.7 12.5 100 0.0 SSE 24 39 13 21 - - 145.6
21/03:32am 12.4 7.8 12.4 100 0.0 S 28 52 15 28 - - 141.2
21/03:30am 12.5 8.0 12.5 100 0.0 S 28 46 15 25 - - 141.0
21/03:00am 12.8 8.7 12.8 100 0.0 S 26 44 14 24 - - 137.2
21/02:30am 12.9 8.5 12.9 100 0.0 SSE 28 48 15 26 - - 132.0
21/02:00am 13.3 8.6 13.3 100 0.0 SSE 30 50 16 27 - - 125.8
21/01:32am 13.4 9.2 13.4 100 0.0 SSE 28 48 15 26 - - 120.2
21/01:30am 13.4 9.5 13.4 100 0.0 SSE 26 48 14 26 - - 120.0
21/01:17am 13.4 9.2 13.4 100 0.0 S 28 61 15 33 - - 118.6
21/01:00am 13.3 9.8 13.3 100 0.0 SSE 24 44 13 24 - - 116.8
21/12:32am 13.4 9.2 13.4 100 0.0 SSE 28 50 15 27 - - 112.0
21/12:30am 13.4 9.5 13.4 100 0.0 SSE 26 50 14 27 - - 111.8
21/12:00am 13.6 9.8 13.6 100 0.0 SSE 26 50 14 27 - - 104.0
 
Date/Time
EST
Tmp

°C
App
Tmp
°C
Dew
Point
°C
Rel
Hum
%
Delta-T

°C
Wind Press
QNH
hPa
Press
MSL
hPa
Rain
since
9 am
mm
Dir
 
Spd
km/h
Gust
km/h
Spd
kts
Gust
kts
20/11:30pm 13.9 10.6 13.9 100 0.0 SSE 24 41 13 22 - - 97.6
20/11:00pm 13.9 9.8 13.9 100 0.0 SSE 28 44 15 24 - - 90.8
20/10:32pm 13.8 9.7 13.8 100 0.0 SSE 28 50 15 27 - - 85.2
20/10:30pm 13.8 10.4 13.8 100 0.0 SSE 24 41 13 22 - - 84.8
20/10:00pm 13.9 9.8 13.9 100 0.0 S 28 48 15 26 - - 78.6
20/09:30pm 14.1 9.7 14.1 100 0.0 SSE 30 50 16 27 - - 73.0
20/09:28pm 14.2 10.2 14.2 100 0.0 SSE 28 50 15 27 - - 72.8
20/09:00pm 14.4 10.9 14.4 100 0.0 SSE 26 54 14 29 - - 67.0
20/08:33pm 14.6 10.4 14.6 100 0.0 SSE 30 48 16 26 - - 63.6
20/08:30pm 14.6 10.8 14.6 100 0.0 SSE 28 44 15 24 - - 63.2
20/08:05pm 14.4 10.9 14.4 100 0.0 S 26 63 14 34 - - 59.6
20/08:00pm 14.4 11.6 14.4 100 0.0 S 22 46 12 25 - - 59.0
20/07:38pm 14.5 10.6 14.5 100 0.0 SSE 28 54 15 29 - - 57.0
20/07:30pm 14.6 11.5 14.6 100 0.0 SSE 24 52 13 28 - - 56.8
20/07:02pm 14.8 11.0 14.8 100 0.0 SSE 28 50 15 27 - - 56.8
20/07:00pm 14.7 11.7 14.7 100 0.0 SSE 24 50 13 27 - - 56.6
20/06:30pm 14.0 9.6 14.0 100 0.0 SSE 30 56 16 30 - - 55.6
20/06:25pm 14.1 10.1 14.1 100 0.0 SSE 28 56 15 30 - - 55.4
20/06:00pm 14.4 13.7 14.4 100 0.0 SSE 11 20 6 11 - - 53.4
20/05:30pm 14.4 13.7 14.4 100 0.0 SSE 11 19 6 10 - - 48.6
20/05:00pm 14.3 14.5 14.3 100 0.0 SSW 6 13 3 7 - - 38.0
20/04:30pm 14.2 13.1 14.2 100 0.0 SSE 13 30 7 16 - - 33.8
20/04:00pm 14.1 14.3 14.1 100 0.0 SW 6 15 3 8 - - 24.4
20/03:30pm 14.0 13.2 14.0 100 0.0 SSW 11 24 6 13 - - 22.4
20/03:00pm 14.4 12.0 14.4 100 0.0 SSE 20 33 11 18 - - 21.4
20/02:30pm 14.3 12.8 14.3 100 0.0 S 15 26 8 14 - - 15.0
20/02:00pm 14.4 12.6 14.4 100 0.0 S 17 28 9 15 - - 14.0
20/01:30pm 14.6 12.9 14.6 100 0.0 SSE 17 30 9 16 - - 13.2
20/01:00pm 14.5 13.5 14.5 100 0.0 S 13 22 7 12 - - 11.2
20/12:30pm 14.5 13.9 14.5 100 0.0 SSE 11 19 6 10 - - 9.6
20/12:00pm 13.6 13.0 13.6 100 0.0 S 9 19 5 10 - - 5.6
20/11:30am 13.2 11.7 13.2 100 0.0 S 13 24 7 13 - - 5.2
20/11:00am 12.9 12.1 12.9 100 0.0 SSW 9 17 5 9 - - 4.0
20/10:30am 12.0 11.3 12.0 100 0.0 SSW 7 17 4 9 - - 3.6
20/10:00am 11.7 10.9 11.7 100 0.0 SW 7 15 4 8 - - 2.8
20/09:30am 11.5 10.6 11.5 100 0.0 SW 7 15 4 8 - - 1.8
20/09:00am 11.0 10.0 11.0 100 0.0 SSW 7 17 4 9 - - 13.8
20/08:30am 10.7 9.6 10.7 100 0.0 SSW 7 20 4 11 - - 11.6
20/08:00am 10.5 9.4 10.5 100 0.0 SSW 7 15 4 8 - - 9.4
20/07:30am 10.3 8.7 10.3 100 0.0 SW 9 19 5 10 - - 8.8
20/07:00am 10.1 8.5 10.1 100 0.0 SSW 9 19 5 10 - - 8.2
20/06:30am 9.9 8.2 9.9 100 0.0 SW 9 19 5 10 - - 6.6
20/06:00am 9.8 8.1 9.8 100 0.0 SW 9 17 5 9 - - 5.8
20/05:30am 10.0 8.0 10.0 100 0.0 W 11 19 6 10 - - 4.6
20/05:00am 10.1 8.1 10.0 99 0.1 SW 11 20 6 11 - - 4.0
20/04:30am 10.2 8.6 10.1 99 0.1 SW 9 19 5 10 - - 2.4
20/04:00am 10.5 8.9 10.2 98 0.2 WSW 9 20 5 11 - - 2.0
20/03:30am 10.7 9.5 10.4 98 0.2 SW 7 17 4 9 - - 1.2
20/03:00am 10.6 9.0 10.3 98 0.2 SW 9 20 5 11 - - 0.8
20/02:30am 10.8 9.6 10.2 96 0.3 SW 7 13 4 7 - - 0.2
20/02:00am 10.9 9.2 10.0 94 0.5 SW 9 20 5 11 - - 0.0
20/01:30am 10.9 8.8 9.8 93 0.6 SW 11 26 6 14 - - 0.0
20/01:00am 10.9 9.2 9.7 92 0.6 SW 9 19 5 10 - - 0.0
20/12:30am 10.8 9.0 9.6 92 0.6 WSW 9 19 5 10 - - 0.0
20/12:00am 10.8 9.6 9.4 91 0.7 SW 6 11 3 6 - - 0.0
 
Date/Time
EST
Tmp

°C
App
Tmp
°C
Dew
Point
°C
Rel
Hum
%
Delta-T

°C
Wind Press
QNH
hPa
Press
MSL
hPa
Rain
since
9 am
mm
Dir
 
Spd
km/h
Gust
km/h
Spd
kts
Gust
kts
19/11:30pm 10.8 8.6 9.2 90 0.8 SW 11 17 6 9 - - 0.0
19/11:00pm 11.0 9.1 8.9 87 1.1 WSW 9 15 5 8 - - 0.0
19/10:30pm 11.9 10.0 9.1 83 1.4 WSW 9 20 5 11 - - 0.0
19/10:00pm 12.7 10.9 9.5 81 1.7 SW 9 17 5 9 - - 0.0
19/09:30pm 13.1 11.4 9.9 81 1.7 SSW 9 19 5 10 - - 0.0
19/09:00pm 13.3 11.3 10.3 82 1.6 S 11 28 6 15 - - 0.0
19/08:30pm 13.5 11.3 10.7 83 1.5 S 13 26 7 14 - - 0.0
19/08:00pm 14.1 11.6 10.9 81 1.7 SSE 15 28 8 15 - - 0.0
19/07:30pm 14.8 13.3 11.8 82 1.6 S 11 22 6 12 - - 0.0
19/07:00pm 15.0 12.7 11.6 80 1.9 SSE 15 26 8 14 - - 0.0
19/06:30pm 15.1 13.3 12.2 83 1.6 SSE 13 24 7 13 - - 0.0
19/06:00pm 15.1 13.2 13.0 87 1.2 SSE 15 28 8 15 - - 0.0
19/05:30pm 15.1 12.8 13.0 87 1.2 SSE 17 28 9 15 - - 0.0
19/05:00pm 16.2 14.4 13.3 83 1.6 SSE 15 24 8 13 - - 0.0
19/04:30pm 16.5 14.8 13.6 83 1.7 SE 15 24 8 13 - - 0.0
19/04:00pm 17.7 16.2 14.2 80 2.0 SE 15 24 8 13 - - 0.0
19/03:30pm 18.3 17.5 15.0 81 1.9 SSE 13 20 7 11 - - 0.0
19/03:00pm 18.4 17.4 14.7 79 2.2 SE 13 20 7 11 - - 0.0
19/02:30pm 18.6 17.5 14.3 76 2.5 SE 13 22 7 12 - - 0.0
19/02:00pm 21.3 20.2 10.8 51 5.8 SSW 7 17 4 9 - - 0.0
19/01:30pm 21.0 19.4 10.2 50 5.9 SSW 9 15 5 8 - - 0.0
19/01:00pm 20.8 19.1 10.0 50 5.9 SW 9 17 5 9 - - 0.0
19/12:30pm 20.6 18.9 9.8 50 5.9 S 9 17 5 9 - - 0.0
19/12:00pm 19.5 18.1 9.7 53 5.3 SW 7 13 4 7 - - 0.0
19/11:30am 18.8 16.5 9.0 53 5.2 SW 11 20 6 11 - - 0.0
19/11:00am 19.1 17.2 9.0 52 5.4 SW 9 19 5 10 - - 0.0
19/10:30am 18.8 17.0 9.6 55 4.9 SW 9 20 5 11 - - 0.0
19/10:00am 18.6 16.8 10.9 61 4.2 SW 11 17 6 9 - - 0.0
19/09:30am 18.4 18.4 15.3 82 1.8 SW 9 19 5 10 - - 0.0
19/09:00am 18.8 19.4 16.8 88 1.2 W 9 13 5 7 - - 1.8
19/08:30am 17.5 18.6 16.7 95 0.5 NW 6 9 3 5 - - 1.8
19/08:00am 17.1 18.1 16.3 95 0.5 WNW 6 9 3 5 - - 1.8
19/07:30am 17.2 18.2 16.9 98 0.2 NW 7 11 4 6 - - 1.8
19/07:00am 16.0 16.6 15.8 99 0.1 WNW 7 11 4 6 - - 1.6

Latest Capital City Observations: Canberra | Sydney | Melbourne | Brisbane | Adelaide | Perth | Hobart | Darwin

Other Formats:

Comma delimited format used in spreadsheet applications
http://www.bom.gov.au/fwo/IDN60901/IDN60901.95774.axf

JavaScript Object Notation format (JSON) in row-major order
http://www.bom.gov.au/fwo/IDN60901/IDN60901.95774.json